All
Chaparrosa Ranch Airport (La Pryor, TX) 72TE Weather
There is no TAF data available at 72TE or any nearby airports.
There is no METAR data available at 72TE. Showing METAR data for KCZT (27 mi S).
Recent CZT METAR history (no data for 72TE)
| Date | Time (CDT) | Flight Rules | Wind Dir. | Speed | Type | Height AGL (ft) | Visibility | Temp (°C) | Temp (°F) | Dew Point (°C) | Dew Point (°F) | Rel. Humid. | Pressure | Density Altitude | Remarks |
|---|---|---|---|---|---|---|---|---|---|---|---|---|---|---|---|
| 05-May | 02:15PM | VFR | 130° | 9 kt | Clear |
10 miles | 33° | 91° | 21° | 69° | 49% | 29.72 in Hg | 2,958 ft | ||
| 05-May | 01:55PM | VFR | 190° | 4 kt | Clear |
10 miles | 33° | 91° | 21° | 69° | 49% | 29.73 in Hg | 2,948 ft | ||
| 05-May | 01:35PM | VFR | 200° | 8 kt | Clear |
10 miles | 32° | 89° | 21° | 69° | 52% | 29.74 in Hg | 2,818 ft | ||
| 05-May | 01:15PM | VFR | 190° | 7 kt | Clear |
10 miles | 32° | 89° | 21° | 69° | 52% | 29.74 in Hg | 2,818 ft | ||
| 05-May | 12:55PM | VFR | 180° | 6 kt | 10 miles | 32° | 89° | 21° | 69° | 52% | 29.75 in Hg | 2,808 ft | |||
| 05-May | 12:35PM | VFR | 170° | 8 kt | 10 miles | 31° | 87° | 21° | 69° | 55% | 29.76 in Hg | 2,678 ft | |||
| 05-May | 12:15PM | VFR | 180° | 6 kt | 10 miles | 31° | 87° | 21° | 69° | 55% | 29.76 in Hg | 2,678 ft | |||
| 05-May | 11:55AM | VFR | 210° | 7 kt | 10 miles | 30° | 86° | 22° | 71° | 62% | 29.76 in Hg | 2,558 ft | |||
| 05-May | 11:35AM | VFR | 160° | 8 kt | 10 miles | 28° | 82° | 21° | 69° | 66% | 29.76 in Hg | 2,318 ft | |||
| 05-May | 11:15AM | VFR | 180° | 7 kt | 10 miles | 28° | 82° | 21° | 69° | 66% | 29.77 in Hg | 2,308 ft | |||
| 05-May | 10:55AM | VFR | 190° | 5 kt | 10 miles | 27° | 80° | 22° | 71° | 74% | 29.77 in Hg | 2,188 ft | |||
| 05-May | 10:15AM | VFR | 170° | 5 kt | 10 miles | 25° | 77° | 23° | 73° | 89% | 29.78 in Hg | 1,938 ft | |||
| 05-May | 09:55AM | VFR | 170° | 4 kt | 10 miles | 24° | 75° | 23° | 73° | 94% | 29.79 in Hg | 1,808 ft | |||
| 05-May | 09:35AM | VFR | 190° | 4 kt | 10 miles | 24° | 75° | 23° | 73° | 94% | 29.79 in Hg | 1,808 ft | |||
| 05-May | 09:15AM | VFR | 170° | 6 kt | 10 miles | 23° | 73° | 23° | 73° | 100% | 29.79 in Hg | 1,688 ft | |||
| 05-May | 08:55AM | VFR | 190° | 5 kt | 10 miles | 23° | 73° | 23° | 73° | 100% | 29.79 in Hg | 1,688 ft | |||
| 05-May | 08:15AM | VFR | 160° | 3 kt | 10 miles | 22° | 71° | 22° | 71° | 100% | 29.77 in Hg | 1,588 ft | |||
| 05-May | 07:55AM | VFR | 170° | 4 kt | 10 miles | 22° | 71° | 22° | 71° | 100% | 29.77 in Hg | 1,588 ft | |||
| 05-May | 07:15AM | VFR | 180° | 5 kt | 10 miles | 22° | 71° | 22° | 71° | 100% | 29.77 in Hg | 1,588 ft | |||
| 05-May | 06:55AM | VFR | 180° | 4 kt | 10 miles | 22° | 71° | 22° | 71° | 100% | 29.75 in Hg | 1,608 ft | |||
| 05-May | 06:15AM | VFR | 170° | 6 kt | 10 miles | 22° | 71° | 22° | 71° | 100% | 29.75 in Hg | 1,608 ft | |||
| 05-May | 05:55AM | VFR | 170° | 9 kt | 10 miles | 22° | 71° | 22° | 71° | 100% | 29.75 in Hg | 1,608 ft | |||
| 05-May | 05:35AM | VFR | 180° | 9 kt | 10 miles | 22° | 71° | 22° | 71° | 100% | 29.75 in Hg | 1,608 ft | |||
| 05-May | 05:15AM | VFR | 170° | 6 kt | 10 miles | 21° | 69° | 21° | 69° | 100% | 29.75 in Hg | 1,488 ft |
Login
| Your browser is unsupported. upgrade your browser |
